createdAt,value
2023-04-08T00:00:02.018Z,11.89
2023-04-08T00:02:34.979Z,11.88
2023-04-08T00:05:10.103Z,11.91
2023-04-08T00:07:42.823Z,11.88
2023-04-08T00:10:15.627Z,11.83
2023-04-08T00:12:55.299Z,11.83
2023-04-08T00:15:28.238Z,11.85
2023-04-08T00:18:01.332Z,11.87
2023-04-08T00:20:35.556Z,11.86
2023-04-08T00:23:08.287Z,11.86
2023-04-08T00:25:41.219Z,11.88
2023-04-08T00:28:15.379Z,11.89
2023-04-08T00:30:48.616Z,11.84
2023-04-08T00:33:21.687Z,11.82
2023-04-08T00:35:57.158Z,11.83
2023-04-08T00:38:30.939Z,11.85
2023-04-08T00:41:03.711Z,11.82
2023-04-08T00:43:36.413Z,11.80
2023-04-08T00:46:10.853Z,11.74
2023-04-08T00:48:43.752Z,11.84
2023-04-08T00:51:17.958Z,11.77
2023-04-08T00:53:50.783Z,11.83
2023-04-08T00:56:23.983Z,11.80
2023-04-08T00:58:56.847Z,11.80
2023-04-08T01:01:34.576Z,11.74
2023-04-08T01:04:14.569Z,11.76
2023-04-08T01:06:56.004Z,11.76
2023-04-08T01:09:33.356Z,11.74
2023-04-08T01:12:09.244Z,11.72
2023-04-08T01:14:46.036Z,11.74
2023-04-08T01:17:20.629Z,11.74
2023-04-08T01:19:55.792Z,11.80
2023-04-08T01:22:38.330Z,11.83
2023-04-08T01:25:17.678Z,11.80
2023-04-08T01:27:56.489Z,11.76
2023-04-08T01:30:31.441Z,11.74
2023-04-08T01:33:06.705Z,11.80
2023-04-08T01:35:39.770Z,11.75
2023-04-08T01:38:17.984Z,11.72
2023-04-08T01:40:52.093Z,11.75
2023-04-08T01:43:28.394Z,11.71
2023-04-08T01:46:02.286Z,11.75
2023-04-08T01:48:36.636Z,11.73
2023-04-08T01:51:10.841Z,11.73
2023-04-08T01:53:44.246Z,11.72
2023-04-08T01:56:17.947Z,11.69
2023-04-08T01:58:56.184Z,11.72
2023-04-08T02:01:31.646Z,11.71
2023-04-08T02:04:05.299Z,11.72
2023-04-08T02:06:39.112Z,11.65
2023-04-08T02:09:12.323Z,11.69
2023-04-08T02:11:45.059Z,11.66
2023-04-08T02:14:20.739Z,11.71
2023-04-08T02:16:55.902Z,11.66
2023-04-08T02:19:32.220Z,11.68
2023-04-08T02:22:10.779Z,11.67
2023-04-08T02:24:44.713Z,11.63
2023-04-08T02:27:19.783Z,11.68
2023-04-08T02:29:58.154Z,11.70
2023-04-08T02:32:33.939Z,11.68
2023-04-08T02:35:08.015Z,11.61
2023-04-08T02:37:41.180Z,11.66
2023-04-08T02:40:27.545Z,11.68
2023-04-08T02:43:01.525Z,11.65
2023-04-08T02:45:40.213Z,11.57
2023-04-08T02:48:13.182Z,11.65
2023-04-08T02:50:46.156Z,11.62
2023-04-08T02:53:19.739Z,11.63
2023-04-08T02:55:53.188Z,11.61
2023-04-08T02:58:26.348Z,11.57
2023-04-08T03:01:00.477Z,11.56
2023-04-08T03:03:33.564Z,11.55
2023-04-08T03:06:06.681Z,11.56
2023-04-08T03:08:39.557Z,11.59
2023-04-08T03:11:12.751Z,11.55
2023-04-08T03:13:46.777Z,11.60
2023-04-08T03:16:21.164Z,11.52
2023-04-08T03:18:54.128Z,11.59
2023-04-08T03:21:27.103Z,11.52
2023-04-08T03:23:59.840Z,11.55
2023-04-08T03:26:32.546Z,11.51
2023-04-08T03:29:06.884Z,11.46
2023-04-08T03:31:41.675Z,11.49
2023-04-08T03:34:14.903Z,11.39
2023-04-08T03:36:47.783Z,11.38
2023-04-08T03:39:20.767Z,11.41
2023-04-08T03:41:53.829Z,11.38
2023-04-08T03:44:26.648Z,11.35
2023-04-08T03:47:00.740Z,11.34
2023-04-08T03:49:33.780Z,11.35
2023-04-08T03:52:07.279Z,11.36
2023-04-08T03:54:40.150Z,11.40
2023-04-08T03:57:13.094Z,11.30
2023-04-08T03:59:46.352Z,11.35
2023-04-08T04:02:20.824Z,11.29
2023-04-08T04:04:53.676Z,11.38
2023-04-08T04:07:26.662Z,11.30
2023-04-08T04:09:59.410Z,11.35
2023-04-08T04:12:32.204Z,11.32
2023-04-08T04:15:08.489Z,11.33
2023-04-08T04:17:43.395Z,11.37
2023-04-08T04:20:19.169Z,11.37
2023-04-08T04:22:54.234Z,11.41
2023-04-08T04:25:26.910Z,11.36
2023-04-08T04:28:00.080Z,11.41
2023-04-08T04:30:32.822Z,11.39
2023-04-08T04:33:07.342Z,11.32
2023-04-08T04:35:40.997Z,11.38
2023-04-08T04:38:13.880Z,11.35
2023-04-08T04:40:46.940Z,11.37
2023-04-08T04:43:20.144Z,11.35
2023-04-08T04:45:52.835Z,11.39
2023-04-08T04:48:27.245Z,11.42
2023-04-08T04:51:01.401Z,11.36
2023-04-08T04:53:34.624Z,11.41
2023-04-08T04:56:07.861Z,11.34
2023-04-08T04:58:40.676Z,11.38
2023-04-08T05:01:13.471Z,11.34
2023-04-08T05:03:48.132Z,11.39
2023-04-08T05:06:21.219Z,11.41
2023-04-08T05:08:54.745Z,11.33
2023-04-08T05:11:27.504Z,11.33
2023-04-08T05:14:00.331Z,11.25
2023-04-08T05:16:33.533Z,11.25
2023-04-08T05:19:10.200Z,11.29
2023-04-08T05:21:43.019Z,11.34
2023-04-08T05:24:16.234Z,11.27
2023-04-08T05:26:53.533Z,11.32
2023-04-08T05:29:26.581Z,11.28
2023-04-08T05:32:00.038Z,11.27
2023-04-08T05:34:34.544Z,11.30
2023-04-08T05:37:07.598Z,11.24
2023-04-08T05:39:40.443Z,11.23
2023-04-08T05:42:13.917Z,11.27
2023-04-08T05:44:46.890Z,11.33
2023-04-08T05:47:19.458Z,11.30
2023-04-08T05:49:56.472Z,11.31
2023-04-08T05:52:29.246Z,11.32
2023-04-08T05:55:02.059Z,11.39
2023-04-08T05:57:34.777Z,11.30
2023-04-08T06:00:09.640Z,11.42
2023-04-08T06:02:43.137Z,11.37
2023-04-08T06:05:17.486Z,11.41
2023-04-08T06:07:50.503Z,11.44
2023-04-08T06:10:23.461Z,11.43
2023-04-08T06:12:56.795Z,11.47
2023-04-08T06:15:29.860Z,11.51
2023-04-08T06:18:03.130Z,11.52
2023-04-08T06:20:38.189Z,11.54
2023-04-08T06:23:11.035Z,11.51
2023-04-08T06:25:43.776Z,11.57
2023-04-08T06:28:17.560Z,11.61
2023-04-08T06:30:50.573Z,11.61
2023-04-08T06:33:23.643Z,11.62
2023-04-08T06:36:04.865Z,11.65
2023-04-08T06:38:37.875Z,11.70
2023-04-08T06:41:11.013Z,11.71
2023-04-08T06:43:43.863Z,11.72
2023-04-08T06:46:16.996Z,11.69
2023-04-08T06:48:50.460Z,11.80
2023-04-08T06:51:28.020Z,11.86
2023-04-08T06:54:00.765Z,11.95
2023-04-08T06:56:33.628Z,11.96
2023-04-08T06:59:06.926Z,12.00
2023-04-08T07:01:39.709Z,12.07
2023-04-08T07:04:13.069Z,12.13
2023-04-08T07:06:47.303Z,12.15
2023-04-08T07:09:23.439Z,12.15
2023-04-08T07:11:57.738Z,12.18
2023-04-08T07:14:30.932Z,12.23
2023-04-08T07:17:03.719Z,12.14
2023-04-08T07:19:37.510Z,12.17
2023-04-08T07:22:11.607Z,12.33
2023-04-08T07:24:49.568Z,12.16
2023-04-08T07:27:22.662Z,12.36
2023-04-08T07:29:55.987Z,12.40
2023-04-08T07:32:29.096Z,12.47
2023-04-08T07:35:02.262Z,12.47
2023-04-08T07:37:36.743Z,12.50
2023-04-08T07:40:10.949Z,12.55
2023-04-08T07:42:43.805Z,12.55
2023-04-08T07:45:17.011Z,12.48
2023-04-08T07:47:49.931Z,12.58
2023-04-08T07:50:23.496Z,12.66
2023-04-08T07:52:57.597Z,12.67
2023-04-08T07:55:34.847Z,12.68
2023-04-08T07:58:07.818Z,12.76
2023-04-08T08:00:40.900Z,12.84
2023-04-08T08:03:14.111Z,12.89
2023-04-08T08:05:47.290Z,12.91
2023-04-08T08:08:21.631Z,12.94
2023-04-08T08:10:54.538Z,12.95
2023-04-08T08:13:27.540Z,12.95
2023-04-08T08:16:00.870Z,12.83
2023-04-08T08:18:36.026Z,13.03
2023-04-08T08:21:09.239Z,13.14
2023-04-08T08:23:43.898Z,13.27
2023-04-08T08:26:17.206Z,13.30
2023-04-08T08:28:50.512Z,13.41
2023-04-08T08:31:26.063Z,13.43
2023-04-08T08:33:58.957Z,13.59
2023-04-08T08:36:32.838Z,13.59
2023-04-08T08:39:08.472Z,13.61
2023-04-08T08:41:42.311Z,13.70
2023-04-08T08:44:15.835Z,13.78
2023-04-08T08:46:49.588Z,13.86
2023-04-08T08:49:23.847Z,13.92
2023-04-08T08:51:57.238Z,14.04
2023-04-08T08:54:31.871Z,14.08
2023-04-08T08:57:05.334Z,14.13
2023-04-08T08:59:38.489Z,14.18
2023-04-08T09:02:24.238Z,14.18
2023-04-08T09:04:59.719Z,14.19
2023-04-08T09:07:36.881Z,14.24
2023-04-08T09:10:11.896Z,14.28
2023-04-08T09:12:56.766Z,14.25
2023-04-08T09:15:30.386Z,14.23
2023-04-08T09:18:03.929Z,14.27
2023-04-08T09:20:37.257Z,14.32
2023-04-08T09:23:09.987Z,14.43
2023-04-08T09:25:44.531Z,14.56
2023-04-08T09:28:21.586Z,14.64
2023-04-08T09:30:54.786Z,14.69
2023-04-08T09:33:32.382Z,14.71
2023-04-08T09:36:05.480Z,14.88
2023-04-08T09:38:38.393Z,14.96
2023-04-08T09:41:14.265Z,15.16
2023-04-08T09:43:50.865Z,15.32
2023-04-08T09:46:27.842Z,15.43
2023-04-08T09:49:07.353Z,15.44
2023-04-08T09:51:44.699Z,15.51
2023-04-08T09:54:23.140Z,15.52
2023-04-08T09:57:06.466Z,15.67
2023-04-08T09:59:45.872Z,15.90
2023-04-08T10:02:23.783Z,16.02
2023-04-08T10:04:59.014Z,16.28
2023-04-08T10:07:31.897Z,16.55
2023-04-08T10:10:05.668Z,16.58
2023-04-08T10:12:40.708Z,16.88
2023-04-08T10:15:29.904Z,17.03
2023-04-08T10:18:31.402Z,17.20
2023-04-08T10:21:04.564Z,17.07
2023-04-08T10:23:59.580Z,17.16
2023-04-08T10:26:34.858Z,17.48
2023-04-08T10:29:34.831Z,17.65
2023-04-08T10:32:07.810Z,17.68
2023-04-08T10:34:53.921Z,17.87
2023-04-08T10:37:26.658Z,17.81
2023-04-08T10:39:59.593Z,18.21
2023-04-08T10:42:32.320Z,18.52
2023-04-08T10:45:07.368Z,18.60
2023-04-08T10:47:40.649Z,18.72
2023-04-08T10:50:15.605Z,18.48
2023-04-08T10:52:48.874Z,19.16
2023-04-08T10:55:25.083Z,19.18
2023-04-08T10:58:07.864Z,19.45
2023-04-08T11:00:42.191Z,19.13
2023-04-08T11:03:15.810Z,19.25
2023-04-08T11:05:51.855Z,19.14
2023-04-08T11:08:29.105Z,19.44
2023-04-08T11:11:02.751Z,19.07
2023-04-08T11:13:36.880Z,19.45
2023-04-08T11:16:18.294Z,19.12
2023-04-08T11:18:52.446Z,19.57
2023-04-08T11:21:29.090Z,19.31
2023-04-08T11:24:02.029Z,19.09
2023-04-08T11:26:35.588Z,19.08
2023-04-08T11:29:12.724Z,18.77
2023-04-08T11:31:49.605Z,18.63
2023-04-08T11:34:26.186Z,18.57
2023-04-08T11:36:59.552Z,19.03
2023-04-08T11:39:32.349Z,18.99
2023-04-08T11:42:05.147Z,18.86
2023-04-08T11:44:37.840Z,18.89
2023-04-08T11:47:12.012Z,19.18
2023-04-08T11:49:45.635Z,19.78
2023-04-08T11:52:18.450Z,20.01
2023-04-08T11:54:51.432Z,19.68
2023-04-08T11:57:32.696Z,19.77
2023-04-08T12:00:06.930Z,19.96
2023-04-08T12:02:44.944Z,20.93
2023-04-08T12:05:18.088Z,21.11
2023-04-08T12:07:51.098Z,21.02
2023-04-08T12:10:25.084Z,20.82
2023-04-08T12:12:58.002Z,20.97
2023-04-08T12:15:30.760Z,20.57
2023-04-08T12:18:05.890Z,20.97
2023-04-08T12:20:38.688Z,21.49
2023-04-08T12:23:11.562Z,21.23
2023-04-08T12:25:44.751Z,21.65
2023-04-08T12:28:17.714Z,22.12
2023-04-08T12:30:50.573Z,22.21
2023-04-08T12:33:24.901Z,22.27
2023-04-08T12:35:59.132Z,22.27
2023-04-08T12:38:33.788Z,22.08
2023-04-08T12:41:07.603Z,22.24
2023-04-08T12:43:40.618Z,22.37
2023-04-08T12:46:13.548Z,22.25
2023-04-08T12:48:59.705Z,22.06
2023-04-08T12:51:36.756Z,22.38
2023-04-08T12:54:09.956Z,22.46
2023-04-08T12:56:43.372Z,22.26
2023-04-08T12:59:16.382Z,22.69
2023-04-08T13:01:49.125Z,22.75
2023-04-08T13:04:23.271Z,22.77
2023-04-08T13:06:56.994Z,23.04
2023-04-08T13:09:30.798Z,22.73
2023-04-08T13:12:03.845Z,22.81
2023-04-08T13:14:37.585Z,22.98
2023-04-08T13:17:10.576Z,23.12
2023-04-08T13:19:44.811Z,23.11
2023-04-08T13:22:17.929Z,23.06
2023-04-08T13:24:51.395Z,22.82
2023-04-08T13:27:24.326Z,23.17
2023-04-08T13:29:57.371Z,23.10
2023-04-08T13:32:30.334Z,23.24
2023-04-08T13:35:04.915Z,23.16
2023-04-08T13:37:37.910Z,23.05
2023-04-08T13:40:12.240Z,23.31
2023-04-08T13:45:17.839Z,23.47
2023-04-08T13:47:50.573Z,23.18
2023-04-08T13:50:25.109Z,23.11
2023-04-08T13:52:58.134Z,22.96
2023-04-08T13:55:31.151Z,22.46
2023-04-08T13:58:08.786Z,22.11
2023-04-08T14:00:47.032Z,22.13
2023-04-08T14:03:19.975Z,22.12
2023-04-08T14:05:56.280Z,22.27
2023-04-08T14:08:29.056Z,21.84
2023-04-08T14:11:01.944Z,22.44
2023-04-08T14:13:34.589Z,22.67
2023-04-08T14:16:07.733Z,22.71
2023-04-08T14:18:40.872Z,22.67
2023-04-08T14:21:16.218Z,22.73
2023-04-08T14:23:49.009Z,22.60
2023-04-08T14:26:22.381Z,22.41
2023-04-08T14:28:55.168Z,22.39
2023-04-08T14:31:28.318Z,22.62
2023-04-08T14:34:01.980Z,22.67
2023-04-08T14:36:36.442Z,22.67
2023-04-08T14:39:09.596Z,22.67
2023-04-08T14:41:42.338Z,21.75
2023-04-08T14:44:15.296Z,22.18
2023-04-08T14:46:48.267Z,21.70
2023-04-08T14:49:21.842Z,21.75
2023-04-08T14:51:56.993Z,21.74
2023-04-08T14:54:29.923Z,21.48
2023-04-08T14:57:03.694Z,21.68
2023-04-08T14:59:36.455Z,21.72
2023-04-08T15:02:09.507Z,21.63
2023-04-08T15:04:42.317Z,21.44
2023-04-08T15:07:16.828Z,21.57
2023-04-08T15:09:49.549Z,21.45
2023-04-08T15:12:23.183Z,21.01
2023-04-08T15:14:56.103Z,21.22
2023-04-08T15:17:28.842Z,21.43
2023-04-08T15:20:01.618Z,20.76
2023-04-08T15:22:35.881Z,20.94
2023-04-08T15:25:09.608Z,21.14
2023-04-08T15:27:43.039Z,21.16
2023-04-08T15:30:17.304Z,21.13
2023-04-08T15:32:50.254Z,20.91
2023-04-08T15:35:23.357Z,20.87
2023-04-08T15:37:57.596Z,20.83
2023-04-08T15:40:34.244Z,20.88
2023-04-08T15:43:10.131Z,20.83
2023-04-08T15:45:46.601Z,20.79
2023-04-08T15:48:19.694Z,20.58
2023-04-08T15:50:52.647Z,20.66
2023-04-08T15:53:26.957Z,20.55
2023-04-08T15:55:59.845Z,20.50
2023-04-08T15:58:32.719Z,20.51
2023-04-08T16:01:05.706Z,20.23
2023-04-08T16:03:38.934Z,20.28
2023-04-08T16:06:11.899Z,20.28
2023-04-08T16:08:47.181Z,20.21
2023-04-08T16:11:20.075Z,20.14
2023-04-08T16:13:53.059Z,20.09
2023-04-08T16:16:26.620Z,20.00
2023-04-08T16:19:00.221Z,19.90
2023-04-08T16:21:32.978Z,19.80
2023-04-08T16:24:07.441Z,19.69
2023-04-08T16:26:40.885Z,19.64
2023-04-08T16:29:13.817Z,19.47
2023-04-08T16:31:46.678Z,19.43
2023-04-08T16:34:19.761Z,19.37
2023-04-08T16:36:55.558Z,19.26
2023-04-08T16:39:29.825Z,19.17
2023-04-08T16:42:02.554Z,19.15
2023-04-08T16:44:35.615Z,19.09
2023-04-08T16:47:08.400Z,19.09
2023-04-08T16:49:41.242Z,19.03
2023-04-08T16:52:13.937Z,18.98
2023-04-08T16:54:48.179Z,18.93
2023-04-08T16:57:21.196Z,18.85
2023-04-08T16:59:54.188Z,18.80
2023-04-08T17:02:27.315Z,18.75
2023-04-08T17:05:00.624Z,18.62
2023-04-08T17:07:33.970Z,18.59
2023-04-08T17:10:09.679Z,18.52
2023-04-08T17:12:42.763Z,18.54
2023-04-08T17:15:15.822Z,18.46
2023-04-08T17:17:48.660Z,18.40
2023-04-08T17:20:22.093Z,18.37
2023-04-08T17:22:54.841Z,18.32
2023-04-08T17:25:29.226Z,18.16
2023-04-08T17:28:02.748Z,18.08
2023-04-08T17:30:35.665Z,18.12
2023-04-08T17:33:08.293Z,18.05
2023-04-08T17:35:41.412Z,18.06
2023-04-08T17:38:14.464Z,18.02
2023-04-08T17:40:48.724Z,17.91
2023-04-08T17:43:21.595Z,17.86
2023-04-08T17:45:54.379Z,17.78
2023-04-08T17:48:27.680Z,17.76
2023-04-08T17:51:01.771Z,17.73
2023-04-08T17:53:35.428Z,17.67
2023-04-08T17:56:10.002Z,17.61
2023-04-08T17:58:42.849Z,17.55
2023-04-08T18:01:15.706Z,17.50
2023-04-08T18:03:49.837Z,17.44
2023-04-08T18:06:22.859Z,17.36
2023-04-08T18:08:55.621Z,17.29
2023-04-08T18:11:30.146Z,17.24
2023-04-08T18:14:02.862Z,17.19
2023-04-08T18:16:35.620Z,17.16
2023-04-08T18:19:08.630Z,17.11
2023-04-08T18:21:41.303Z,17.10
2023-04-08T18:24:14.159Z,17.03
2023-04-08T18:26:54.452Z,17.00
2023-04-08T18:29:34.622Z,16.90
2023-04-08T18:32:07.486Z,16.85
2023-04-08T18:34:40.392Z,16.79
2023-04-08T18:37:13.268Z,16.75
2023-04-08T18:39:46.028Z,16.69
2023-04-08T18:42:20.353Z,16.65
2023-04-08T18:44:53.054Z,16.61
2023-04-08T18:47:25.922Z,16.52
2023-04-08T18:49:58.622Z,16.46
2023-04-08T18:52:32.422Z,16.44
2023-04-08T18:55:05.538Z,16.25
2023-04-08T18:57:39.762Z,16.24
2023-04-08T19:00:13.092Z,16.20
2023-04-08T19:02:46.204Z,16.11
2023-04-08T19:05:19.326Z,16.00
2023-04-08T19:07:53.094Z,15.89
2023-04-08T19:10:26.040Z,15.94
2023-04-08T19:13:00.043Z,15.86
2023-04-08T19:15:32.786Z,15.94
2023-04-08T19:18:05.766Z,15.85
2023-04-08T19:20:39.324Z,15.91
2023-04-08T19:23:12.033Z,15.81
2023-04-08T19:25:44.929Z,15.75
2023-04-08T19:28:18.811Z,15.62
2023-04-08T19:30:51.619Z,15.46
2023-04-08T19:33:24.288Z,15.62
2023-04-08T19:35:57.777Z,15.53
2023-04-08T19:38:30.899Z,15.53
2023-04-08T19:41:03.741Z,15.42
2023-04-08T19:43:37.929Z,15.45
2023-04-08T19:46:10.753Z,15.44
2023-04-08T19:48:44.327Z,15.33
2023-04-08T19:51:20.255Z,15.56
2023-04-08T19:53:53.298Z,15.47
2023-04-08T19:56:26.611Z,15.44
2023-04-08T19:59:01.366Z,15.39
2023-04-08T20:01:35.863Z,15.37
2023-04-08T20:04:09.177Z,15.30
2023-04-08T20:06:42.225Z,15.32
2023-04-08T20:09:14.784Z,15.24
2023-04-08T20:11:47.512Z,15.18
2023-04-08T20:14:21.788Z,15.26
2023-04-08T20:16:54.448Z,15.30
2023-04-08T20:19:27.302Z,15.28
2023-04-08T20:21:59.931Z,15.23
2023-04-08T20:24:38.346Z,15.25
2023-04-08T20:27:11.139Z,15.25
2023-04-08T20:29:45.576Z,15.21
2023-04-08T20:32:18.334Z,15.11
2023-04-08T20:34:51.582Z,15.14
2023-04-08T20:37:24.237Z,15.02
2023-04-08T20:39:57.550Z,15.06
2023-04-08T20:42:30.603Z,15.07
2023-04-08T20:45:05.067Z,15.14
2023-04-08T20:47:37.888Z,15.06
2023-04-08T20:50:11.626Z,14.90
2023-04-08T20:52:44.418Z,15.00
2023-04-08T20:55:17.666Z,14.89
2023-04-08T20:57:50.426Z,14.83
2023-04-08T21:00:24.563Z,14.89
2023-04-08T21:02:57.753Z,14.82
2023-04-08T21:05:30.529Z,14.76
2023-04-08T21:08:03.256Z,14.78
2023-04-08T21:10:36.059Z,14.72
2023-04-08T21:13:08.877Z,14.70
2023-04-08T21:15:43.140Z,14.63
2023-04-08T21:18:15.914Z,14.58
2023-04-08T21:20:49.886Z,14.59
2023-04-08T21:23:22.627Z,14.57
2023-04-08T21:25:56.384Z,14.48
2023-04-08T21:28:29.173Z,14.48
2023-04-08T21:31:10.023Z,14.48
2023-04-08T21:33:42.746Z,14.48
2023-04-08T21:36:15.530Z,14.46
2023-04-08T21:38:48.210Z,14.35
2023-04-08T21:41:21.762Z,14.37
2023-04-08T21:43:54.675Z,14.32
2023-04-08T21:46:28.568Z,14.23
2023-04-08T21:49:01.935Z,14.23
2023-04-08T21:51:35.267Z,14.24
2023-04-08T21:54:08.152Z,14.23
2023-04-08T21:56:40.882Z,14.16
2023-04-08T21:59:13.648Z,14.12
2023-04-08T22:01:48.242Z,14.08
2023-04-08T22:04:22.356Z,13.96
2023-04-08T22:06:55.232Z,13.94
2023-04-08T22:09:27.918Z,13.95
2023-04-08T22:12:01.581Z,13.92
2023-04-08T22:14:34.322Z,13.85
2023-04-08T22:17:08.548Z,13.81
2023-04-08T22:19:41.518Z,13.79
2023-04-08T22:22:14.131Z,13.78
2023-04-08T22:24:46.831Z,13.72
2023-04-08T22:27:19.891Z,13.69
2023-04-08T22:29:52.582Z,13.61
2023-04-08T22:32:26.668Z,13.63
2023-04-08T22:34:59.430Z,13.65
2023-04-08T22:37:32.727Z,13.53
2023-04-08T22:40:06.633Z,13.53
2023-04-08T22:42:39.711Z,13.48
2023-04-08T22:45:12.350Z,13.51
2023-04-08T22:47:46.439Z,13.42
2023-04-08T22:50:19.232Z,13.45
2023-04-08T22:52:52.192Z,13.36
2023-04-08T22:55:24.866Z,13.31
2023-04-08T22:57:57.601Z,13.37
2023-04-08T23:00:30.535Z,13.32
2023-04-08T23:03:04.931Z,13.27
2023-04-08T23:05:37.724Z,13.25
2023-04-08T23:08:10.488Z,13.23
2023-04-08T23:10:43.159Z,13.20
2023-04-08T23:13:15.983Z,13.11
2023-04-08T23:15:48.793Z,13.05
2023-04-08T23:18:22.932Z,13.12
2023-04-08T23:20:57.143Z,13.12
2023-04-08T23:23:29.915Z,13.07
2023-04-08T23:26:02.598Z,12.99
2023-04-08T23:28:35.382Z,12.99
2023-04-08T23:31:08.084Z,12.99
2023-04-08T23:33:42.199Z,12.95
2023-04-08T23:36:14.990Z,12.93
2023-04-08T23:38:47.754Z,12.90
2023-04-08T23:41:20.569Z,12.89
2023-04-08T23:43:53.563Z,12.89
2023-04-08T23:46:26.202Z,12.84
2023-04-08T23:49:00.440Z,12.80
2023-04-08T23:51:33.142Z,12.83
2023-04-08T23:54:06.616Z,12.80
2023-04-08T23:56:41.586Z,12.80
2023-04-08T23:59:14.489Z,12.73
